sensor_id;sensor_type;location;lat;lon;timestamp;temperature;humidity
21167;DHT22;10741;52.272;9.580;2023-07-02T00:02:00;14.40;99.90
21167;DHT22;10741;52.272;9.580;2023-07-02T00:04:26;15.70;99.90
21167;DHT22;10741;52.272;9.580;2023-07-02T00:06:52;15.00;99.90
21167;DHT22;10741;52.272;9.580;2023-07-02T00:09:18;15.00;99.90
21167;DHT22;10741;52.272;9.580;2023-07-02T00:11:45;15.00;99.90
21167;DHT22;10741;52.272;9.580;2023-07-02T00:14:12;14.70;99.90
21167;DHT22;10741;52.272;9.580;2023-07-02T00:16:43;15.00;99.90
21167;DHT22;10741;52.272;9.580;2023-07-02T00:19:13;15.00;99.90
21167;DHT22;10741;52.272;9.580;2023-07-02T00:21:39;14.40;99.90
21167;DHT22;10741;52.272;9.580;2023-07-02T00:24:07;15.00;99.90
21167;DHT22;10741;52.272;9.580;2023-07-02T00:26:35;14.90;99.90
21167;DHT22;10741;52.272;9.580;2023-07-02T00:29:03;14.80;99.90
21167;DHT22;10741;52.272;9.580;2023-07-02T00:31:33;14.90;99.90
21167;DHT22;10741;52.272;9.580;2023-07-02T00:34:03;14.90;99.90
21167;DHT22;10741;52.272;9.580;2023-07-02T00:36:30;14.90;99.90
21167;DHT22;10741;52.272;9.580;2023-07-02T00:38:57;14.60;99.90
21167;DHT22;10741;52.272;9.580;2023-07-02T00:41:24;15.20;99.90
21167;DHT22;10741;52.272;9.580;2023-07-02T00:43:50;14.90;99.90
21167;DHT22;10741;52.272;9.580;2023-07-02T00:46:20;14.90;99.90
21167;DHT22;10741;52.272;9.580;2023-07-02T00:48:51;14.90;99.90
21167;DHT22;10741;52.272;9.580;2023-07-02T00:51:27;14.90;99.90
21167;DHT22;10741;52.272;9.580;2023-07-02T00:53:54;14.80;99.90
21167;DHT22;10741;52.272;9.580;2023-07-02T00:56:22;14.80;99.90
21167;DHT22;10741;52.272;9.580;2023-07-02T00:58:50;14.70;99.90
21167;DHT22;10741;52.272;9.580;2023-07-02T01:01:19;14.70;99.90
21167;DHT22;10741;52.272;9.580;2023-07-02T01:03:59;14.60;99.90
21167;DHT22;10741;52.272;9.580;2023-07-02T01:06:27;14.60;99.90
21167;DHT22;10741;52.272;9.580;2023-07-02T01:08:55;14.60;99.90
21167;DHT22;10741;52.272;9.580;2023-07-02T01:14:17;14.60;99.90
21167;DHT22;10741;52.272;9.580;2023-07-02T01:16:44;14.60;99.90
21167;DHT22;10741;52.272;9.580;2023-07-02T01:19:19;14.50;99.90
21167;DHT22;10741;52.272;9.580;2023-07-02T01:21:47;14.60;99.90
21167;DHT22;10741;52.272;9.580;2023-07-02T01:24:15;14.50;99.90
21167;DHT22;10741;52.272;9.580;2023-07-02T01:26:41;14.50;99.90
21167;DHT22;10741;52.272;9.580;2023-07-02T01:29:17;14.40;99.90
21167;DHT22;10741;52.272;9.580;2023-07-02T01:31:44;14.40;99.90
21167;DHT22;10741;52.272;9.580;2023-07-02T01:34:10;14.40;99.90
21167;DHT22;10741;52.272;9.580;2023-07-02T01:36:37;14.30;99.90
21167;DHT22;10741;52.272;9.580;2023-07-02T01:39:03;14.40;99.90
21167;DHT22;10741;52.272;9.580;2023-07-02T01:41:29;14.40;99.90
21167;DHT22;10741;52.272;9.580;2023-07-02T01:43:55;14.40;99.90
21167;DHT22;10741;52.272;9.580;2023-07-02T01:46:21;14.50;99.90
21167;DHT22;10741;52.272;9.580;2023-07-02T01:48:47;14.50;99.90
21167;DHT22;10741;52.272;9.580;2023-07-02T01:51:13;14.60;99.90
21167;DHT22;10741;52.272;9.580;2023-07-02T01:53:39;14.70;99.90
21167;DHT22;10741;52.272;9.580;2023-07-02T01:56:05;14.70;99.90
21167;DHT22;10741;52.272;9.580;2023-07-02T01:58:31;14.80;99.90
21167;DHT22;10741;52.272;9.580;2023-07-02T02:00:57;14.80;99.90
21167;DHT22;10741;52.272;9.580;2023-07-02T02:03:22;14.80;99.90
21167;DHT22;10741;52.272;9.580;2023-07-02T02:05:48;14.90;99.90
21167;DHT22;10741;52.272;9.580;2023-07-02T02:08:14;15.00;99.90
21167;DHT22;10741;52.272;9.580;2023-07-02T02:10:40;15.00;99.90
21167;DHT22;10741;52.272;9.580;2023-07-02T02:13:06;15.10;99.90
21167;DHT22;10741;52.272;9.580;2023-07-02T02:15:31;15.10;99.90
21167;DHT22;10741;52.272;9.580;2023-07-02T02:17:57;15.10;99.90
21167;DHT22;10741;52.272;9.580;2023-07-02T02:20:23;15.10;99.90
21167;DHT22;10741;52.272;9.580;2023-07-02T02:22:49;15.20;99.90
21167;DHT22;10741;52.272;9.580;2023-07-02T02:25:14;15.20;99.90
21167;DHT22;10741;52.272;9.580;2023-07-02T02:27:40;15.20;99.90
21167;DHT22;10741;52.272;9.580;2023-07-02T02:30:07;15.20;99.90
21167;DHT22;10741;52.272;9.580;2023-07-02T02:32:33;15.20;99.90
21167;DHT22;10741;52.272;9.580;2023-07-02T02:34:58;15.20;99.90
21167;DHT22;10741;52.272;9.580;2023-07-02T02:37:24;15.20;99.90
21167;DHT22;10741;52.272;9.580;2023-07-02T02:39:50;15.30;99.90
21167;DHT22;10741;52.272;9.580;2023-07-02T02:42:16;15.30;99.90
21167;DHT22;10741;52.272;9.580;2023-07-02T02:44:41;15.30;99.90
21167;DHT22;10741;52.272;9.580;2023-07-02T02:47:07;15.30;99.90
21167;DHT22;10741;52.272;9.580;2023-07-02T02:49:33;15.30;99.90
21167;DHT22;10741;52.272;9.580;2023-07-02T02:51:59;15.40;99.90
21167;DHT22;10741;52.272;9.580;2023-07-02T02:54:24;15.30;99.90
21167;DHT22;10741;52.272;9.580;2023-07-02T02:56:50;15.40;99.90
21167;DHT22;10741;52.272;9.580;2023-07-02T02:59:16;15.40;99.90
21167;DHT22;10741;52.272;9.580;2023-07-02T03:01:42;15.40;99.90
21167;DHT22;10741;52.272;9.580;2023-07-02T03:04:07;15.50;99.90
21167;DHT22;10741;52.272;9.580;2023-07-02T03:06:34;15.50;99.90
21167;DHT22;10741;52.272;9.580;2023-07-02T03:08:59;15.40;99.90
21167;DHT22;10741;52.272;9.580;2023-07-02T03:11:25;15.50;99.90
21167;DHT22;10741;52.272;9.580;2023-07-02T03:13:51;15.50;99.90
21167;DHT22;10741;52.272;9.580;2023-07-02T03:16:17;15.50;99.90
21167;DHT22;10741;52.272;9.580;2023-07-02T03:18:42;15.50;99.90
21167;DHT22;10741;52.272;9.580;2023-07-02T03:21:09;15.50;99.90
21167;DHT22;10741;52.272;9.580;2023-07-02T03:23:35;15.50;99.90
21167;DHT22;10741;52.272;9.580;2023-07-02T03:26:01;15.50;99.90
21167;DHT22;10741;52.272;9.580;2023-07-02T03:28:26;15.50;99.90
21167;DHT22;10741;52.272;9.580;2023-07-02T03:30:52;15.50;99.90
21167;DHT22;10741;52.272;9.580;2023-07-02T03:33:18;15.50;99.90
21167;DHT22;10741;52.272;9.580;2023-07-02T03:35:44;15.50;99.90
21167;DHT22;10741;52.272;9.580;2023-07-02T03:38:10;15.50;99.90
21167;DHT22;10741;52.272;9.580;2023-07-02T03:40:35;15.50;99.90
21167;DHT22;10741;52.272;9.580;2023-07-02T03:43:01;15.60;99.90
21167;DHT22;10741;52.272;9.580;2023-07-02T03:45:27;15.60;99.90
21167;DHT22;10741;52.272;9.580;2023-07-02T03:47:53;15.60;99.90
21167;DHT22;10741;52.272;9.580;2023-07-02T03:50:19;15.60;99.90
21167;DHT22;10741;52.272;9.580;2023-07-02T03:52:44;15.60;99.90
21167;DHT22;10741;52.272;9.580;2023-07-02T03:55:10;15.60;99.90
21167;DHT22;10741;52.272;9.580;2023-07-02T03:57:36;15.60;99.90
21167;DHT22;10741;52.272;9.580;2023-07-02T04:00:02;15.70;99.90
21167;DHT22;10741;52.272;9.580;2023-07-02T04:02:30;15.70;99.90
21167;DHT22;10741;52.272;9.580;2023-07-02T04:04:56;15.70;99.90
21167;DHT22;10741;52.272;9.580;2023-07-02T04:07:21;15.70;99.90
21167;DHT22;10741;52.272;9.580;2023-07-02T04:09:47;15.70;99.90
21167;DHT22;10741;52.272;9.580;2023-07-02T04:12:13;15.70;99.90
21167;DHT22;10741;52.272;9.580;2023-07-02T04:14:39;15.70;99.90
21167;DHT22;10741;52.272;9.580;2023-07-02T04:17:05;15.50;99.90
21167;DHT22;10741;52.272;9.580;2023-07-02T04:19:31;15.40;99.90
21167;DHT22;10741;52.272;9.580;2023-07-02T04:21:56;15.20;99.90
21167;DHT22;10741;52.272;9.580;2023-07-02T04:24:22;15.10;99.90
21167;DHT22;10741;52.272;9.580;2023-07-02T04:26:48;15.00;99.90
21167;DHT22;10741;52.272;9.580;2023-07-02T04:29:13;14.90;99.90
21167;DHT22;10741;52.272;9.580;2023-07-02T04:31:39;14.80;99.90
21167;DHT22;10741;52.272;9.580;2023-07-02T04:34:05;14.80;99.90
21167;DHT22;10741;52.272;9.580;2023-07-02T04:36:33;14.70;99.90
21167;DHT22;10741;52.272;9.580;2023-07-02T04:38:59;14.50;99.90
21167;DHT22;10741;52.272;9.580;2023-07-02T04:41:26;14.50;99.90
21167;DHT22;10741;52.272;9.580;2023-07-02T04:43:52;14.40;99.90
21167;DHT22;10741;52.272;9.580;2023-07-02T04:46:17;14.40;99.90
21167;DHT22;10741;52.272;9.580;2023-07-02T04:48:43;14.30;99.90
21167;DHT22;10741;52.272;9.580;2023-07-02T04:51:09;14.30;99.90
21167;DHT22;10741;52.272;9.580;2023-07-02T04:53:35;14.20;99.90
21167;DHT22;10741;52.272;9.580;2023-07-02T04:56:03;14.20;99.90
21167;DHT22;10741;52.272;9.580;2023-07-02T04:58:29;14.20;99.90
21167;DHT22;10741;52.272;9.580;2023-07-02T05:00:54;14.20;99.90
21167;DHT22;10741;52.272;9.580;2023-07-02T05:03:20;14.20;99.90
21167;DHT22;10741;52.272;9.580;2023-07-02T05:05:46;14.10;99.90
21167;DHT22;10741;52.272;9.580;2023-07-02T05:08:11;14.20;99.90
21167;DHT22;10741;52.272;9.580;2023-07-02T05:10:37;14.20;99.90
21167;DHT22;10741;52.272;9.580;2023-07-02T05:13:03;14.20;99.90
21167;DHT22;10741;52.272;9.580;2023-07-02T05:15:29;14.20;99.90
21167;DHT22;10741;52.272;9.580;2023-07-02T05:17:54;14.20;99.90
21167;DHT22;10741;52.272;9.580;2023-07-02T05:20:20;14.20;99.90
21167;DHT22;10741;52.272;9.580;2023-07-02T05:22:46;14.30;99.90
21167;DHT22;10741;52.272;9.580;2023-07-02T05:25:12;14.30;99.90
21167;DHT22;10741;52.272;9.580;2023-07-02T05:27:37;14.40;99.90
21167;DHT22;10741;52.272;9.580;2023-07-02T05:30:03;14.50;99.90
21167;DHT22;10741;52.272;9.580;2023-07-02T05:32:29;14.50;99.90
21167;DHT22;10741;52.272;9.580;2023-07-02T05:34:55;14.60;99.90
21167;DHT22;10741;52.272;9.580;2023-07-02T05:37:21;14.70;99.90
21167;DHT22;10741;52.272;9.580;2023-07-02T05:39:47;14.70;99.90
21167;DHT22;10741;52.272;9.580;2023-07-02T05:42:13;14.80;99.90
21167;DHT22;10741;52.272;9.580;2023-07-02T05:44:40;15.10;99.90
21167;DHT22;10741;52.272;9.580;2023-07-02T05:47:05;15.10;99.90
21167;DHT22;10741;52.272;9.580;2023-07-02T05:49:31;15.30;99.90
21167;DHT22;10741;52.272;9.580;2023-07-02T05:51:57;15.40;99.90
21167;DHT22;10741;52.272;9.580;2023-07-02T05:54:23;15.50;99.90
21167;DHT22;10741;52.272;9.580;2023-07-02T05:56:48;15.60;99.90
21167;DHT22;10741;52.272;9.580;2023-07-02T05:59:16;15.70;99.90
21167;DHT22;10741;52.272;9.580;2023-07-02T06:01:44;15.80;99.90
21167;DHT22;10741;52.272;9.580;2023-07-02T06:04:10;15.90;99.90
21167;DHT22;10741;52.272;9.580;2023-07-02T06:06:36;16.10;99.90
21167;DHT22;10741;52.272;9.580;2023-07-02T06:09:02;16.20;99.90
21167;DHT22;10741;52.272;9.580;2023-07-02T06:11:28;16.30;99.90
21167;DHT22;10741;52.272;9.580;2023-07-02T06:13:54;16.30;99.90
21167;DHT22;10741;52.272;9.580;2023-07-02T06:16:20;16.80;99.90
21167;DHT22;10741;52.272;9.580;2023-07-02T06:18:46;16.60;99.90
21167;DHT22;10741;52.272;9.580;2023-07-02T06:21:12;16.60;99.90
21167;DHT22;10741;52.272;9.580;2023-07-02T06:23:44;16.80;99.90
21167;DHT22;10741;52.272;9.580;2023-07-02T06:26:10;16.80;99.90
21167;DHT22;10741;52.272;9.580;2023-07-02T06:28:37;16.80;99.90
21167;DHT22;10741;52.272;9.580;2023-07-02T06:31:03;17.00;99.90
21167;DHT22;10741;52.272;9.580;2023-07-02T06:33:29;17.10;99.90
21167;DHT22;10741;52.272;9.580;2023-07-02T06:35:55;17.00;99.90
21167;DHT22;10741;52.272;9.580;2023-07-02T06:38:20;17.00;99.90
21167;DHT22;10741;52.272;9.580;2023-07-02T06:40:46;17.00;99.90
21167;DHT22;10741;52.272;9.580;2023-07-02T06:43:12;17.10;99.90
21167;DHT22;10741;52.272;9.580;2023-07-02T06:45:38;17.10;99.90
21167;DHT22;10741;52.272;9.580;2023-07-02T06:48:03;17.20;99.90
21167;DHT22;10741;52.272;9.580;2023-07-02T06:50:29;17.00;99.90
21167;DHT22;10741;52.272;9.580;2023-07-02T06:52:55;17.00;99.90
21167;DHT22;10741;52.272;9.580;2023-07-02T06:55:20;17.10;99.90
21167;DHT22;10741;52.272;9.580;2023-07-02T06:57:46;17.20;99.90
21167;DHT22;10741;52.272;9.580;2023-07-02T07:00:13;17.30;99.90
21167;DHT22;10741;52.272;9.580;2023-07-02T07:02:40;17.30;99.90
21167;DHT22;10741;52.272;9.580;2023-07-02T07:05:06;17.30;99.90
21167;DHT22;10741;52.272;9.580;2023-07-02T07:07:32;17.30;99.90
21167;DHT22;10741;52.272;9.580;2023-07-02T07:09:57;17.40;99.90
21167;DHT22;10741;52.272;9.580;2023-07-02T07:12:23;17.30;99.90
21167;DHT22;10741;52.272;9.580;2023-07-02T07:14:49;17.30;99.90
21167;DHT22;10741;52.272;9.580;2023-07-02T07:17:15;17.30;99.90
21167;DHT22;10741;52.272;9.580;2023-07-02T07:19:40;17.40;99.90
21167;DHT22;10741;52.272;9.580;2023-07-02T07:22:06;17.50;99.90
21167;DHT22;10741;52.272;9.580;2023-07-02T07:24:32;17.60;99.90
21167;DHT22;10741;52.272;9.580;2023-07-02T07:26:58;17.70;99.90
21167;DHT22;10741;52.272;9.580;2023-07-02T07:29:23;17.80;99.90
21167;DHT22;10741;52.272;9.580;2023-07-02T07:31:50;17.90;99.90
21167;DHT22;10741;52.272;9.580;2023-07-02T07:34:15;17.90;99.90
21167;DHT22;10741;52.272;9.580;2023-07-02T07:36:41;17.90;99.90
21167;DHT22;10741;52.272;9.580;2023-07-02T07:39:07;17.90;99.90
21167;DHT22;10741;52.272;9.580;2023-07-02T07:41:33;17.90;99.90
21167;DHT22;10741;52.272;9.580;2023-07-02T07:43:58;18.20;99.90
21167;DHT22;10741;52.272;9.580;2023-07-02T07:46:25;18.30;99.90
21167;DHT22;10741;52.272;9.580;2023-07-02T07:48:51;18.20;99.90
21167;DHT22;10741;52.272;9.580;2023-07-02T07:51:17;18.30;99.90
21167;DHT22;10741;52.272;9.580;2023-07-02T07:53:42;18.40;99.90
21167;DHT22;10741;52.272;9.580;2023-07-02T07:56:08;18.30;99.90
21167;DHT22;10741;52.272;9.580;2023-07-02T07:58:34;18.30;99.90
21167;DHT22;10741;52.272;9.580;2023-07-02T08:01:00;18.40;99.90
21167;DHT22;10741;52.272;9.580;2023-07-02T08:03:25;18.40;99.90
21167;DHT22;10741;52.272;9.580;2023-07-02T08:05:51;18.50;99.90
21167;DHT22;10741;52.272;9.580;2023-07-02T08:08:17;18.80;99.90
21167;DHT22;10741;52.272;9.580;2023-07-02T08:10:43;18.80;99.90
21167;DHT22;10741;52.272;9.580;2023-07-02T08:13:08;18.90;99.90
21167;DHT22;10741;52.272;9.580;2023-07-02T08:15:34;19.00;99.90
21167;DHT22;10741;52.272;9.580;2023-07-02T08:18:00;19.00;99.90
21167;DHT22;10741;52.272;9.580;2023-07-02T08:20:26;18.90;99.90
21167;DHT22;10741;52.272;9.580;2023-07-02T08:22:52;18.90;99.90
21167;DHT22;10741;52.272;9.580;2023-07-02T08:25:18;19.10;99.90
21167;DHT22;10741;52.272;9.580;2023-07-02T08:27:44;19.10;99.90
21167;DHT22;10741;52.272;9.580;2023-07-02T08:30:10;19.10;99.90
21167;DHT22;10741;52.272;9.580;2023-07-02T08:32:36;19.30;99.90
21167;DHT22;10741;52.272;9.580;2023-07-02T08:35:02;19.30;99.90
21167;DHT22;10741;52.272;9.580;2023-07-02T08:37:28;19.20;99.90
21167;DHT22;10741;52.272;9.580;2023-07-02T08:39:53;19.30;99.90
21167;DHT22;10741;52.272;9.580;2023-07-02T08:42:19;19.60;99.90
21167;DHT22;10741;52.272;9.580;2023-07-02T08:44:46;19.80;99.90
21167;DHT22;10741;52.272;9.580;2023-07-02T08:47:15;19.90;99.90
21167;DHT22;10741;52.272;9.580;2023-07-02T08:49:42;19.80;99.90
21167;DHT22;10741;52.272;9.580;2023-07-02T08:52:08;19.50;99.90
21167;DHT22;10741;52.272;9.580;2023-07-02T08:54:34;19.40;99.90
21167;DHT22;10741;52.272;9.580;2023-07-02T08:56:59;19.50;99.90
21167;DHT22;10741;52.272;9.580;2023-07-02T08:59:30;19.50;99.90
21167;DHT22;10741;52.272;9.580;2023-07-02T09:01:56;19.40;99.90
21167;DHT22;10741;52.272;9.580;2023-07-02T09:04:24;19.40;99.90
21167;DHT22;10741;52.272;9.580;2023-07-02T09:07:02;19.10;99.90
21167;DHT22;10741;52.272;9.580;2023-07-02T09:09:28;18.80;99.90
21167;DHT22;10741;52.272;9.580;2023-07-02T09:11:54;18.50;99.90
21167;DHT22;10741;52.272;9.580;2023-07-02T09:14:28;18.70;99.90
21167;DHT22;10741;52.272;9.580;2023-07-02T09:17:05;19.10;99.90
21167;DHT22;10741;52.272;9.580;2023-07-02T09:19:32;19.40;99.90
21167;DHT22;10741;52.272;9.580;2023-07-02T09:21:58;19.40;99.90
21167;DHT22;10741;52.272;9.580;2023-07-02T09:24:29;19.40;99.90
21167;DHT22;10741;52.272;9.580;2023-07-02T09:26:57;19.60;99.90
21167;DHT22;10741;52.272;9.580;2023-07-02T09:29:32;19.80;99.90
21167;DHT22;10741;52.272;9.580;2023-07-02T09:32:02;19.80;99.90
21167;DHT22;10741;52.272;9.580;2023-07-02T09:34:33;20.00;99.90
21167;DHT22;10741;52.272;9.580;2023-07-02T09:37:00;20.10;99.90
21167;DHT22;10741;52.272;9.580;2023-07-02T09:39:31;19.80;99.90
21167;DHT22;10741;52.272;9.580;2023-07-02T09:42:02;19.40;99.90
21167;DHT22;10741;52.272;9.580;2023-07-02T09:44:29;19.00;99.90
21167;DHT22;10741;52.272;9.580;2023-07-02T09:49:27;19.40;99.90
21167;DHT22;10741;52.272;9.580;2023-07-02T09:51:56;19.60;99.90
21167;DHT22;10741;52.272;9.580;2023-07-02T09:54:22;19.90;99.90
21167;DHT22;10741;52.272;9.580;2023-07-02T09:56:48;20.00;99.90
21167;DHT22;10741;52.272;9.580;2023-07-02T09:59:14;20.00;99.90
21167;DHT22;10741;52.272;9.580;2023-07-02T10:01:40;20.10;99.90
21167;DHT22;10741;52.272;9.580;2023-07-02T10:04:16;20.30;99.90
21167;DHT22;10741;52.272;9.580;2023-07-02T10:06:56;20.40;99.90
21167;DHT22;10741;52.272;9.580;2023-07-02T10:09:36;20.40;99.90
21167;DHT22;10741;52.272;9.580;2023-07-02T10:12:21;20.60;99.90
21167;DHT22;10741;52.272;9.580;2023-07-02T10:14:50;20.60;99.90
21167;DHT22;10741;52.272;9.580;2023-07-02T10:17:27;20.80;99.90
21167;DHT22;10741;52.272;9.580;2023-07-02T10:19:55;20.90;99.90
21167;DHT22;10741;52.272;9.580;2023-07-02T10:22:21;20.80;99.90
21167;DHT22;10741;52.272;9.580;2023-07-02T10:27:18;20.40;99.90
21167;DHT22;10741;52.272;9.580;2023-07-02T10:29:51;20.30;99.90
21167;DHT22;10741;52.272;9.580;2023-07-02T10:32:26;20.20;99.90
21167;DHT22;10741;52.272;9.580;2023-07-02T10:34:55;19.90;99.90
21167;DHT22;10741;52.272;9.580;2023-07-02T10:37:21;19.70;99.90
21167;DHT22;10741;52.272;9.580;2023-07-02T10:39:47;19.40;99.90
21167;DHT22;10741;52.272;9.580;2023-07-02T10:42:13;19.20;99.90
21167;DHT22;10741;52.272;9.580;2023-07-02T10:44:51;19.10;99.90
21167;DHT22;10741;52.272;9.580;2023-07-02T10:47:18;19.30;99.90
21167;DHT22;10741;52.272;9.580;2023-07-02T10:49:45;19.40;99.90
21167;DHT22;10741;52.272;9.580;2023-07-02T10:52:11;19.50;99.90
21167;DHT22;10741;52.272;9.580;2023-07-02T10:54:45;19.60;99.90
21167;DHT22;10741;52.272;9.580;2023-07-02T10:57:14;19.60;99.90
21167;DHT22;10741;52.272;9.580;2023-07-02T10:59:46;19.40;99.90
21167;DHT22;10741;52.272;9.580;2023-07-02T11:02:12;19.30;99.90
21167;DHT22;10741;52.272;9.580;2023-07-02T11:04:38;19.10;99.90
21167;DHT22;10741;52.272;9.580;2023-07-02T11:07:04;19.10;99.90
21167;DHT22;10741;52.272;9.580;2023-07-02T11:09:30;19.30;99.90
21167;DHT22;10741;52.272;9.580;2023-07-02T11:11:58;19.80;99.90
21167;DHT22;10741;52.272;9.580;2023-07-02T11:14:34;20.20;99.90
21167;DHT22;10741;52.272;9.580;2023-07-02T11:17:06;20.30;99.90
21167;DHT22;10741;52.272;9.580;2023-07-02T11:19:35;20.30;99.90
21167;DHT22;10741;52.272;9.580;2023-07-02T11:22:01;20.30;99.90
21167;DHT22;10741;52.272;9.580;2023-07-02T11:27:02;19.70;99.90
21167;DHT22;10741;52.272;9.580;2023-07-02T11:29:29;19.40;99.90
21167;DHT22;10741;52.272;9.580;2023-07-02T11:32:05;19.30;99.90
21167;DHT22;10741;52.272;9.580;2023-07-02T11:34:30;19.40;99.90
21167;DHT22;10741;52.272;9.580;2023-07-02T11:36:56;19.80;99.90
21167;DHT22;10741;52.272;9.580;2023-07-02T11:39:22;20.10;99.90
21167;DHT22;10741;52.272;9.580;2023-07-02T11:41:48;20.30;99.90
21167;DHT22;10741;52.272;9.580;2023-07-02T11:44:16;20.40;99.90
21167;DHT22;10741;52.272;9.580;2023-07-02T11:46:41;20.20;99.90
21167;DHT22;10741;52.272;9.580;2023-07-02T11:49:07;19.90;99.90
21167;DHT22;10741;52.272;9.580;2023-07-02T11:51:36;19.70;99.90
21167;DHT22;10741;52.272;9.580;2023-07-02T11:54:03;19.60;99.90
21167;DHT22;10741;52.272;9.580;2023-07-02T11:56:29;19.50;99.90
21167;DHT22;10741;52.272;9.580;2023-07-02T11:58:55;19.50;99.90
21167;DHT22;10741;52.272;9.580;2023-07-02T12:01:21;19.40;99.90
21167;DHT22;10741;52.272;9.580;2023-07-02T12:03:47;19.50;99.90
21167;DHT22;10741;52.272;9.580;2023-07-02T12:06:13;19.50;99.90
21167;DHT22;10741;52.272;9.580;2023-07-02T12:08:39;20.10;99.90
21167;DHT22;10741;52.272;9.580;2023-07-02T12:11:04;20.80;99.90
21167;DHT22;10741;52.272;9.580;2023-07-02T12:13:30;21.20;99.90
21167;DHT22;10741;52.272;9.580;2023-07-02T12:15:56;20.70;99.40
21167;DHT22;10741;52.272;9.580;2023-07-02T12:18:22;20.40;99.90
21167;DHT22;10741;52.272;9.580;2023-07-02T12:20:47;20.10;99.90
21167;DHT22;10741;52.272;9.580;2023-07-02T12:23:13;20.40;99.90
21167;DHT22;10741;52.272;9.580;2023-07-02T12:25:39;20.90;99.90
21167;DHT22;10741;52.272;9.580;2023-07-02T12:28:05;21.20;99.90
21167;DHT22;10741;52.272;9.580;2023-07-02T12:30:31;21.70;99.90
21167;DHT22;10741;52.272;9.580;2023-07-02T12:32:57;21.50;99.90
21167;DHT22;10741;52.272;9.580;2023-07-02T12:35:23;21.80;99.90
21167;DHT22;10741;52.272;9.580;2023-07-02T12:37:53;22.20;99.90
21167;DHT22;10741;52.272;9.580;2023-07-02T12:40:19;22.60;98.80
21167;DHT22;10741;52.272;9.580;2023-07-02T12:42:47;22.70;99.90
21167;DHT22;10741;52.272;9.580;2023-07-02T12:45:13;22.90;97.70
21167;DHT22;10741;52.272;9.580;2023-07-02T12:47:40;22.50;98.70
21167;DHT22;10741;52.272;9.580;2023-07-02T12:50:07;21.90;99.20
21167;DHT22;10741;52.272;9.580;2023-07-02T12:52:33;21.80;99.90
21167;DHT22;10741;52.272;9.580;2023-07-02T12:55:00;21.90;99.90
21167;DHT22;10741;52.272;9.580;2023-07-02T12:57:26;22.60;99.40
21167;DHT22;10741;52.272;9.580;2023-07-02T12:59:55;23.00;99.90
21167;DHT22;10741;52.272;9.580;2023-07-02T13:02:22;23.30;98.20
21167;DHT22;10741;52.272;9.580;2023-07-02T13:04:49;22.90;98.00
21167;DHT22;10741;52.272;9.580;2023-07-02T13:07:15;22.70;99.90
21167;DHT22;10741;52.272;9.580;2023-07-02T13:09:42;22.10;99.90
21167;DHT22;10741;52.272;9.580;2023-07-02T13:12:09;21.60;99.90
21167;DHT22;10741;52.272;9.580;2023-07-02T13:14:35;22.00;99.90
21167;DHT22;10741;52.272;9.580;2023-07-02T13:17:01;21.80;99.90
21167;DHT22;10741;52.272;9.580;2023-07-02T13:19:30;21.40;99.90
21167;DHT22;10741;52.272;9.580;2023-07-02T13:21:56;21.10;99.90
21167;DHT22;10741;52.272;9.580;2023-07-02T13:24:22;21.00;99.90
21167;DHT22;10741;52.272;9.580;2023-07-02T13:26:47;21.20;99.90
21167;DHT22;10741;52.272;9.580;2023-07-02T13:29:14;21.70;99.90
21167;DHT22;10741;52.272;9.580;2023-07-02T13:31:39;22.30;97.80
21167;DHT22;10741;52.272;9.580;2023-07-02T13:34:05;22.60;98.50
21167;DHT22;10741;52.272;9.580;2023-07-02T13:36:31;22.90;98.40
21167;DHT22;10741;52.272;9.580;2023-07-02T13:38:57;23.20;98.80
21167;DHT22;10741;52.272;9.580;2023-07-02T13:41:23;23.60;96.90
21167;DHT22;10741;52.272;9.580;2023-07-02T13:43:49;23.90;96.60
21167;DHT22;10741;52.272;9.580;2023-07-02T13:46:14;23.90;95.00
21167;DHT22;10741;52.272;9.580;2023-07-02T13:48:40;23.70;94.50
21167;DHT22;10741;52.272;9.580;2023-07-02T13:51:06;23.90;96.50
21167;DHT22;10741;52.272;9.580;2023-07-02T13:53:33;24.20;98.00
21167;DHT22;10741;52.272;9.580;2023-07-02T13:55:59;24.10;95.80
21167;DHT22;10741;52.272;9.580;2023-07-02T13:58:25;24.00;92.50
21167;DHT22;10741;52.272;9.580;2023-07-02T14:00:51;23.90;94.30
21167;DHT22;10741;52.272;9.580;2023-07-02T14:03:17;24.00;95.40
21167;DHT22;10741;52.272;9.580;2023-07-02T14:05:42;24.10;93.40
21167;DHT22;10741;52.272;9.580;2023-07-02T14:08:09;24.10;95.20
21167;DHT22;10741;52.272;9.580;2023-07-02T14:10:35;24.00;92.40
21167;DHT22;10741;52.272;9.580;2023-07-02T14:13:01;24.10;94.10
21167;DHT22;10741;52.272;9.580;2023-07-02T14:15:27;24.30;93.20
21167;DHT22;10741;52.272;9.580;2023-07-02T14:17:53;23.90;92.80
21167;DHT22;10741;52.272;9.580;2023-07-02T14:20:20;23.90;94.00
21167;DHT22;10741;52.272;9.580;2023-07-02T14:22:46;23.80;94.10
21167;DHT22;10741;52.272;9.580;2023-07-02T14:25:11;24.00;94.40
21167;DHT22;10741;52.272;9.580;2023-07-02T14:27:37;24.00;92.70
21167;DHT22;10741;52.272;9.580;2023-07-02T14:30:04;24.40;93.60
21167;DHT22;10741;52.272;9.580;2023-07-02T14:32:35;24.10;92.90
21167;DHT22;10741;52.272;9.580;2023-07-02T14:35:03;24.00;95.50
21167;DHT22;10741;52.272;9.580;2023-07-02T14:37:29;24.20;95.60
21167;DHT22;10741;52.272;9.580;2023-07-02T14:39:54;24.00;94.20
21167;DHT22;10741;52.272;9.580;2023-07-02T14:42:20;23.70;93.00
21167;DHT22;10741;52.272;9.580;2023-07-02T14:44:46;23.90;95.80
21167;DHT22;10741;52.272;9.580;2023-07-02T14:47:12;24.10;95.70
21167;DHT22;10741;52.272;9.580;2023-07-02T14:49:38;23.50;92.80
21167;DHT22;10741;52.272;9.580;2023-07-02T14:52:04;22.50;92.60
21167;DHT22;10741;52.272;9.580;2023-07-02T14:54:31;22.60;94.10
21167;DHT22;10741;52.272;9.580;2023-07-02T14:56:56;22.80;94.10
21167;DHT22;10741;52.272;9.580;2023-07-02T14:59:22;22.70;92.80
21167;DHT22;10741;52.272;9.580;2023-07-02T15:01:48;22.30;93.70
21167;DHT22;10741;52.272;9.580;2023-07-02T15:04:14;22.10;93.60
21167;DHT22;10741;52.272;9.580;2023-07-02T15:06:40;22.10;95.40
21167;DHT22;10741;52.272;9.580;2023-07-02T15:09:05;22.10;94.80
21167;DHT22;10741;52.272;9.580;2023-07-02T15:11:31;22.00;96.20
21167;DHT22;10741;52.272;9.580;2023-07-02T15:13:57;21.90;95.20
21167;DHT22;10741;52.272;9.580;2023-07-02T15:16:24;21.50;95.30
21167;DHT22;10741;52.272;9.580;2023-07-02T15:18:50;21.30;95.10
21167;DHT22;10741;52.272;9.580;2023-07-02T15:21:16;21.30;95.50
21167;DHT22;10741;52.272;9.580;2023-07-02T15:23:44;21.40;95.20
21167;DHT22;10741;52.272;9.580;2023-07-02T15:26:09;21.30;94.90
21167;DHT22;10741;52.272;9.580;2023-07-02T15:28:35;21.30;95.10
21167;DHT22;10741;52.272;9.580;2023-07-02T15:31:10;21.20;94.10
21167;DHT22;10741;52.272;9.580;2023-07-02T15:33:37;21.10;94.30
21167;DHT22;10741;52.272;9.580;2023-07-02T15:36:04;21.00;94.90
21167;DHT22;10741;52.272;9.580;2023-07-02T15:38:30;21.00;95.10